Terminal Aerodrome Forecast
Issued by NWS

Home | Current Version | Previous Version | Graphics & Text | Print | Product List | Glossary On
Versions: 1 2 3 4 5 6 7 8 9 10 11 12 13 14 15 16 17 18 19 20 21 22 23 24 25 26
000
FTUS43 KTOP 280520
TAFMHK
TAF
KMHK 280520Z 2806/2906 15007KT P6SM BKN100
      TEMPO 2806/2809 5SM -TSRA OVC060CB
     FM281000 19011KT P6SM VCTS SCT060CB BKN150
     FM281200 18012KT P6SM SCT050 BKN120
     FM281800 21013KT P6SM VCTS BKN050CB
     FM282100 21005KT P6SM SCT150=

USA.gov is the U.S. government's official web portal to all federal, state and local government web resources and services.